sensor_id;sensor_type;location;lat;lon;timestamp;temperature;humidity
22416;DHT22;12204;50.600;4.608;2023-12-22T00:03:34;21.80;69.30
22416;DHT22;12204;50.600;4.608;2023-12-22T00:08:38;21.80;69.20
22416;DHT22;12204;50.600;4.608;2023-12-22T00:13:41;21.80;69.30
22416;DHT22;12204;50.600;4.608;2023-12-22T00:18:46;21.80;69.00
22416;DHT22;12204;50.600;4.608;2023-12-22T00:23:50;21.70;68.90
22416;DHT22;12204;50.600;4.608;2023-12-22T00:28:53;21.80;69.00
22416;DHT22;12204;50.600;4.608;2023-12-22T00:33:58;21.80;69.10
22416;DHT22;12204;50.600;4.608;2023-12-22T00:39:03;21.80;68.90
22416;DHT22;12204;50.600;4.608;2023-12-22T00:44:06;21.80;68.80
22416;DHT22;12204;50.600;4.608;2023-12-22T00:49:11;21.80;68.80
22416;DHT22;12204;50.600;4.608;2023-12-22T00:54:14;21.70;68.50
22416;DHT22;12204;50.600;4.608;2023-12-22T00:59:18;21.80;68.60
22416;DHT22;12204;50.600;4.608;2023-12-22T01:04:23;21.70;68.50
22416;DHT22;12204;50.600;4.608;2023-12-22T01:09:26;21.70;69.30
22416;DHT22;12204;50.600;4.608;2023-12-22T01:14:30;21.70;68.80
22416;DHT22;12204;50.600;4.608;2023-12-22T01:19:36;21.70;68.80
22416;DHT22;12204;50.600;4.608;2023-12-22T01:24:39;21.70;68.80
22416;DHT22;12204;50.600;4.608;2023-12-22T01:29:45;21.70;68.70
22416;DHT22;12204;50.600;4.608;2023-12-22T01:34:53;21.70;68.90
22416;DHT22;12204;50.600;4.608;2023-12-22T01:39:57;21.70;68.80
22416;DHT22;12204;50.600;4.608;2023-12-22T01:45:00;21.70;68.80
22416;DHT22;12204;50.600;4.608;2023-12-22T01:50:06;21.60;68.70
22416;DHT22;12204;50.600;4.608;2023-12-22T01:55:13;21.60;68.70
22416;DHT22;12204;50.600;4.608;2023-12-22T02:00:19;21.60;68.60
22416;DHT22;12204;50.600;4.608;2023-12-22T02:05:24;21.60;68.60
22416;DHT22;12204;50.600;4.608;2023-12-22T02:10:28;21.60;68.60
22416;DHT22;12204;50.600;4.608;2023-12-22T02:15:32;21.60;68.60
22416;DHT22;12204;50.600;4.608;2023-12-22T02:20:38;21.60;68.60
22416;DHT22;12204;50.600;4.608;2023-12-22T02:25:43;21.60;68.60
22416;DHT22;12204;50.600;4.608;2023-12-22T02:30:54;21.50;68.50
22416;DHT22;12204;50.600;4.608;2023-12-22T02:36:04;21.50;68.60
22416;DHT22;12204;50.600;4.608;2023-12-22T02:41:11;21.50;68.80
22416;DHT22;12204;50.600;4.608;2023-12-22T02:46:15;21.50;69.00
22416;DHT22;12204;50.600;4.608;2023-12-22T02:51:19;21.50;68.50
22416;DHT22;12204;50.600;4.608;2023-12-22T02:56:24;21.50;68.50
22416;DHT22;12204;50.600;4.608;2023-12-22T03:01:27;21.60;68.40
22416;DHT22;12204;50.600;4.608;2023-12-22T03:06:31;21.60;68.00
22416;DHT22;12204;50.600;4.608;2023-12-22T03:11:36;21.80;67.70
22416;DHT22;12204;50.600;4.608;2023-12-22T03:16:39;21.80;67.50
22416;DHT22;12204;50.600;4.608;2023-12-22T03:21:44;21.90;67.00
22416;DHT22;12204;50.600;4.608;2023-12-22T03:26:49;22.00;66.40
22416;DHT22;12204;50.600;4.608;2023-12-22T03:31:53;22.10;66.20
22416;DHT22;12204;50.600;4.608;2023-12-22T03:36:56;22.10;66.20
22416;DHT22;12204;50.600;4.608;2023-12-22T03:42:01;22.10;65.70
22416;DHT22;12204;50.600;4.608;2023-12-22T03:47:05;22.20;65.70
22416;DHT22;12204;50.600;4.608;2023-12-22T03:52:09;22.20;65.70
22416;DHT22;12204;50.600;4.608;2023-12-22T03:57:14;22.20;65.80
22416;DHT22;12204;50.600;4.608;2023-12-22T04:02:17;22.30;65.80
22416;DHT22;12204;50.600;4.608;2023-12-22T04:07:21;22.30;65.70
22416;DHT22;12204;50.600;4.608;2023-12-22T04:12:27;22.30;65.90
22416;DHT22;12204;50.600;4.608;2023-12-22T04:17:30;22.30;65.70
22416;DHT22;12204;50.600;4.608;2023-12-22T04:22:34;22.30;65.80
22416;DHT22;12204;50.600;4.608;2023-12-22T04:27:39;22.30;65.90
22416;DHT22;12204;50.600;4.608;2023-12-22T04:32:42;22.30;65.90
22416;DHT22;12204;50.600;4.608;2023-12-22T04:37:46;22.20;66.00
22416;DHT22;12204;50.600;4.608;2023-12-22T04:42:51;22.20;66.20
22416;DHT22;12204;50.600;4.608;2023-12-22T04:47:54;22.20;66.30
22416;DHT22;12204;50.600;4.608;2023-12-22T04:52:59;22.20;66.30
22416;DHT22;12204;50.600;4.608;2023-12-22T04:58:04;22.20;66.50
22416;DHT22;12204;50.600;4.608;2023-12-22T05:03:07;22.20;66.60
22416;DHT22;12204;50.600;4.608;2023-12-22T05:08:11;22.10;66.70
22416;DHT22;12204;50.600;4.608;2023-12-22T05:13:16;22.10;66.70
22416;DHT22;12204;50.600;4.608;2023-12-22T05:18:19;22.10;66.60
22416;DHT22;12204;50.600;4.608;2023-12-22T05:23:23;22.10;66.70
22416;DHT22;12204;50.600;4.608;2023-12-22T05:28:28;22.00;66.60
22416;DHT22;12204;50.600;4.608;2023-12-22T05:33:31;22.00;66.60
22416;DHT22;12204;50.600;4.608;2023-12-22T05:38:37;22.00;66.60
22416;DHT22;12204;50.600;4.608;2023-12-22T05:43:42;21.90;66.80
22416;DHT22;12204;50.600;4.608;2023-12-22T05:48:46;21.90;67.10
22416;DHT22;12204;50.600;4.608;2023-12-22T05:53:49;21.90;67.10
22416;DHT22;12204;50.600;4.608;2023-12-22T05:58:56;21.80;67.20
22416;DHT22;12204;50.600;4.608;2023-12-22T06:04:00;21.80;67.20
22416;DHT22;12204;50.600;4.608;2023-12-22T06:09:03;21.80;67.40
22416;DHT22;12204;50.600;4.608;2023-12-22T06:14:08;21.70;67.50
22416;DHT22;12204;50.600;4.608;2023-12-22T06:19:12;21.70;67.50
22416;DHT22;12204;50.600;4.608;2023-12-22T06:24:16;21.70;67.70
22416;DHT22;12204;50.600;4.608;2023-12-22T06:29:20;21.60;67.60
22416;DHT22;12204;50.600;4.608;2023-12-22T06:34:24;21.60;67.90
22416;DHT22;12204;50.600;4.608;2023-12-22T06:39:28;21.60;67.70
22416;DHT22;12204;50.600;4.608;2023-12-22T06:44:34;21.60;67.70
22416;DHT22;12204;50.600;4.608;2023-12-22T06:49:38;21.60;68.10
22416;DHT22;12204;50.600;4.608;2023-12-22T06:54:42;21.60;68.70
22416;DHT22;12204;50.600;4.608;2023-12-22T06:59:47;21.50;68.40
22416;DHT22;12204;50.600;4.608;2023-12-22T07:05:34;21.50;68.10
22416;DHT22;12204;50.600;4.608;2023-12-22T07:10:39;21.50;68.10
22416;DHT22;12204;50.600;4.608;2023-12-22T07:15:44;21.50;68.10
22416;DHT22;12204;50.600;4.608;2023-12-22T07:20:48;21.50;68.20
22416;DHT22;12204;50.600;4.608;2023-12-22T07:25:51;21.50;68.30
22416;DHT22;12204;50.600;4.608;2023-12-22T07:30:56;21.40;68.30
22416;DHT22;12204;50.600;4.608;2023-12-22T07:36:00;21.40;68.50
22416;DHT22;12204;50.600;4.608;2023-12-22T07:41:04;21.40;68.60
22416;DHT22;12204;50.600;4.608;2023-12-22T07:46:16;21.50;68.60
22416;DHT22;12204;50.600;4.608;2023-12-22T07:51:20;21.50;68.60
22416;DHT22;12204;50.600;4.608;2023-12-22T07:56:24;21.50;68.70
22416;DHT22;12204;50.600;4.608;2023-12-22T08:01:29;21.50;68.60
22416;DHT22;12204;50.600;4.608;2023-12-22T08:06:32;21.50;68.60
22416;DHT22;12204;50.600;4.608;2023-12-22T08:11:36;21.50;69.30
22416;DHT22;12204;50.600;4.608;2023-12-22T08:16:41;21.50;68.60
22416;DHT22;12204;50.600;4.608;2023-12-22T08:21:46;21.50;68.70
22416;DHT22;12204;50.600;4.608;2023-12-22T08:26:52;21.50;68.70
22416;DHT22;12204;50.600;4.608;2023-12-22T08:31:57;21.50;68.70
22416;DHT22;12204;50.600;4.608;2023-12-22T08:37:01;21.50;68.70
22416;DHT22;12204;50.600;4.608;2023-12-22T08:42:05;21.50;69.10
22416;DHT22;12204;50.600;4.608;2023-12-22T08:47:10;21.50;68.90
22416;DHT22;12204;50.600;4.608;2023-12-22T08:52:13;21.50;68.90
22416;DHT22;12204;50.600;4.608;2023-12-22T08:57:16;21.50;69.10
22416;DHT22;12204;50.600;4.608;2023-12-22T09:02:21;21.50;69.50
22416;DHT22;12204;50.600;4.608;2023-12-22T09:07:25;21.40;69.40
22416;DHT22;12204;50.600;4.608;2023-12-22T09:12:28;21.40;69.70
22416;DHT22;12204;50.600;4.608;2023-12-22T09:17:33;21.50;70.30
22416;DHT22;12204;50.600;4.608;2023-12-22T09:22:37;21.50;70.10
22416;DHT22;12204;50.600;4.608;2023-12-22T09:27:40;21.50;70.00
22416;DHT22;12204;50.600;4.608;2023-12-22T09:32:45;21.50;69.60
22416;DHT22;12204;50.600;4.608;2023-12-22T09:37:49;21.50;69.40
22416;DHT22;12204;50.600;4.608;2023-12-22T09:42:55;21.40;69.20
22416;DHT22;12204;50.600;4.608;2023-12-22T09:48:01;21.40;69.10
22416;DHT22;12204;50.600;4.608;2023-12-22T09:53:06;21.40;69.10
22416;DHT22;12204;50.600;4.608;2023-12-22T09:58:11;21.40;69.10
22416;DHT22;12204;50.600;4.608;2023-12-22T10:03:19;21.40;68.90
22416;DHT22;12204;50.600;4.608;2023-12-22T10:08:23;21.20;66.50
22416;DHT22;12204;50.600;4.608;2023-12-22T10:13:27;21.10;65.30
22416;DHT22;12204;50.600;4.608;2023-12-22T10:18:32;20.90;64.00
22416;DHT22;12204;50.600;4.608;2023-12-22T10:23:36;20.80;63.10
22416;DHT22;12204;50.600;4.608;2023-12-22T10:28:41;20.70;62.70
22416;DHT22;12204;50.600;4.608;2023-12-22T10:33:46;20.60;61.60
22416;DHT22;12204;50.600;4.608;2023-12-22T10:38:50;20.40;61.80
22416;DHT22;12204;50.600;4.608;2023-12-22T10:43:54;20.30;61.80
22416;DHT22;12204;50.600;4.608;2023-12-22T10:48:58;20.20;62.30
22416;DHT22;12204;50.600;4.608;2023-12-22T10:54:04;20.20;62.50
22416;DHT22;12204;50.600;4.608;2023-12-22T10:59:09;20.20;62.90
22416;DHT22;12204;50.600;4.608;2023-12-22T11:04:17;20.20;63.30
22416;DHT22;12204;50.600;4.608;2023-12-22T11:09:23;20.30;63.70
22416;DHT22;12204;50.600;4.608;2023-12-22T11:14:29;20.30;64.00
22416;DHT22;12204;50.600;4.608;2023-12-22T11:19:37;20.40;64.40
22416;DHT22;12204;50.600;4.608;2023-12-22T11:24:43;20.40;64.80
22416;DHT22;12204;50.600;4.608;2023-12-22T11:29:50;20.40;65.10
22416;DHT22;12204;50.600;4.608;2023-12-22T11:34:56;20.40;65.50
22416;DHT22;12204;50.600;4.608;2023-12-22T11:40:04;20.40;65.70
22416;DHT22;12204;50.600;4.608;2023-12-22T11:45:10;20.40;65.90
22416;DHT22;12204;50.600;4.608;2023-12-22T11:50:28;20.40;66.20
22416;DHT22;12204;50.600;4.608;2023-12-22T11:56:00;20.40;66.30
22416;DHT22;12204;50.600;4.608;2023-12-22T12:01:07;20.40;66.40
22416;DHT22;12204;50.600;4.608;2023-12-22T12:06:22;20.40;66.60
22416;DHT22;12204;50.600;4.608;2023-12-22T12:12:14;20.40;66.90
22416;DHT22;12204;50.600;4.608;2023-12-22T12:17:19;20.40;67.10
22416;DHT22;12204;50.600;4.608;2023-12-22T12:22:24;20.30;67.10
22416;DHT22;12204;50.600;4.608;2023-12-22T12:27:28;20.40;67.30
22416;DHT22;12204;50.600;4.608;2023-12-22T12:32:32;20.30;67.40
22416;DHT22;12204;50.600;4.608;2023-12-22T12:37:38;20.40;67.50
22416;DHT22;12204;50.600;4.608;2023-12-22T12:42:42;20.40;67.70
22416;DHT22;12204;50.600;4.608;2023-12-22T12:47:55;20.40;67.80
22416;DHT22;12204;50.600;4.608;2023-12-22T12:53:05;20.40;67.90
22416;DHT22;12204;50.600;4.608;2023-12-22T12:58:09;20.40;67.90
22416;DHT22;12204;50.600;4.608;2023-12-22T13:03:13;20.40;68.00
22416;DHT22;12204;50.600;4.608;2023-12-22T13:08:18;20.40;68.30
22416;DHT22;12204;50.600;4.608;2023-12-22T13:13:33;20.50;72.80
22416;DHT22;12204;50.600;4.608;2023-12-22T13:18:44;20.50;72.60
22416;DHT22;12204;50.600;4.608;2023-12-22T13:24:08;20.50;72.80
22416;DHT22;12204;50.600;4.608;2023-12-22T13:29:13;20.50;72.60
22416;DHT22;12204;50.600;4.608;2023-12-22T13:34:17;20.50;72.20
22416;DHT22;12204;50.600;4.608;2023-12-22T13:39:27;20.50;72.70
22416;DHT22;12204;50.600;4.608;2023-12-22T13:44:31;20.50;71.70
22416;DHT22;12204;50.600;4.608;2023-12-22T13:49:34;20.40;71.40
22416;DHT22;12204;50.600;4.608;2023-12-22T13:54:40;20.40;71.20
22416;DHT22;12204;50.600;4.608;2023-12-22T13:59:43;20.40;71.00
22416;DHT22;12204;50.600;4.608;2023-12-22T14:04:47;20.40;70.80
22416;DHT22;12204;50.600;4.608;2023-12-22T14:09:53;20.40;70.80
22416;DHT22;12204;50.600;4.608;2023-12-22T14:14:56;20.40;70.60
22416;DHT22;12204;50.600;4.608;2023-12-22T14:20:00;20.40;71.20
22416;DHT22;12204;50.600;4.608;2023-12-22T14:25:06;20.40;70.30
22416;DHT22;12204;50.600;4.608;2023-12-22T14:30:12;20.40;70.20
22416;DHT22;12204;50.600;4.608;2023-12-22T14:35:18;20.40;70.10
22416;DHT22;12204;50.600;4.608;2023-12-22T14:40:23;20.30;69.90
22416;DHT22;12204;50.600;4.608;2023-12-22T14:45:27;20.30;69.90
22416;DHT22;12204;50.600;4.608;2023-12-22T14:50:31;20.30;69.90
22416;DHT22;12204;50.600;4.608;2023-12-22T14:55:36;20.30;69.90
22416;DHT22;12204;50.600;4.608;2023-12-22T15:00:39;20.30;69.90
22416;DHT22;12204;50.600;4.608;2023-12-22T15:05:43;20.30;70.00
22416;DHT22;12204;50.600;4.608;2023-12-22T15:10:48;20.30;70.00
22416;DHT22;12204;50.600;4.608;2023-12-22T15:15:52;20.30;69.90
22416;DHT22;12204;50.600;4.608;2023-12-22T15:20:55;20.20;69.80
22416;DHT22;12204;50.600;4.608;2023-12-22T15:26:00;20.20;69.70
22416;DHT22;12204;50.600;4.608;2023-12-22T15:31:08;20.20;69.70
22416;DHT22;12204;50.600;4.608;2023-12-22T15:36:16;20.20;69.70
22416;DHT22;12204;50.600;4.608;2023-12-22T15:41:22;20.20;69.70
22416;DHT22;12204;50.600;4.608;2023-12-22T15:46:25;20.20;70.10
22416;DHT22;12204;50.600;4.608;2023-12-22T15:51:29;20.30;70.60
22416;DHT22;12204;50.600;4.608;2023-12-22T15:56:34;20.40;70.80
22416;DHT22;12204;50.600;4.608;2023-12-22T16:01:42;20.40;72.00
22416;DHT22;12204;50.600;4.608;2023-12-22T16:06:46;20.50;72.10
22416;DHT22;12204;50.600;4.608;2023-12-22T16:11:51;20.50;72.00
22416;DHT22;12204;50.600;4.608;2023-12-22T16:16:55;20.50;72.40
22416;DHT22;12204;50.600;4.608;2023-12-22T16:21:58;20.50;72.50
22416;DHT22;12204;50.600;4.608;2023-12-22T16:27:03;20.50;72.90
22416;DHT22;12204;50.600;4.608;2023-12-22T16:32:07;20.50;72.60
22416;DHT22;12204;50.600;4.608;2023-12-22T16:37:12;20.50;72.30
22416;DHT22;12204;50.600;4.608;2023-12-22T16:42:19;20.50;72.40
22416;DHT22;12204;50.600;4.608;2023-12-22T16:47:23;20.50;71.60
22416;DHT22;12204;50.600;4.608;2023-12-22T16:52:31;20.40;71.40
22416;DHT22;12204;50.600;4.608;2023-12-22T16:57:37;20.40;71.30
22416;DHT22;12204;50.600;4.608;2023-12-22T17:02:44;20.40;71.20
22416;DHT22;12204;50.600;4.608;2023-12-22T17:07:49;20.40;71.60
22416;DHT22;12204;50.600;4.608;2023-12-22T17:12:57;20.40;71.40
22416;DHT22;12204;50.600;4.608;2023-12-22T17:18:01;20.40;72.40
22416;DHT22;12204;50.600;4.608;2023-12-22T17:23:06;20.40;72.50
22416;DHT22;12204;50.600;4.608;2023-12-22T17:28:11;20.40;72.50
22416;DHT22;12204;50.600;4.608;2023-12-22T17:33:14;20.40;72.50
22416;DHT22;12204;50.600;4.608;2023-12-22T17:38:18;20.40;72.40
22416;DHT22;12204;50.600;4.608;2023-12-22T17:43:23;20.40;72.40
22416;DHT22;12204;50.600;4.608;2023-12-22T17:48:27;20.40;72.10
22416;DHT22;12204;50.600;4.608;2023-12-22T17:53:30;20.30;72.70
22416;DHT22;12204;50.600;4.608;2023-12-22T17:58:35;20.30;71.90
22416;DHT22;12204;50.600;4.608;2023-12-22T18:03:40;20.30;71.80
22416;DHT22;12204;50.600;4.608;2023-12-22T18:08:44;20.30;71.80
22416;DHT22;12204;50.600;4.608;2023-12-22T18:13:48;20.40;71.90
22416;DHT22;12204;50.600;4.608;2023-12-22T18:18:54;20.60;72.00
22416;DHT22;12204;50.600;4.608;2023-12-22T18:23:58;20.70;71.50
22416;DHT22;12204;50.600;4.608;2023-12-22T18:29:03;20.90;71.20
22416;DHT22;12204;50.600;4.608;2023-12-22T18:34:06;21.00;71.30
22416;DHT22;12204;50.600;4.608;2023-12-22T18:39:10;21.00;70.10
22416;DHT22;12204;50.600;4.608;2023-12-22T18:44:16;21.10;69.60
22416;DHT22;12204;50.600;4.608;2023-12-22T18:49:20;21.10;69.60
22416;DHT22;12204;50.600;4.608;2023-12-22T18:54:26;21.20;69.50
22416;DHT22;12204;50.600;4.608;2023-12-22T18:59:31;21.20;69.40
22416;DHT22;12204;50.600;4.608;2023-12-22T19:04:35;21.20;69.90
22416;DHT22;12204;50.600;4.608;2023-12-22T19:09:39;21.20;69.30
22416;DHT22;12204;50.600;4.608;2023-12-22T19:14:46;21.20;69.30
22416;DHT22;12204;50.600;4.608;2023-12-22T19:19:51;21.20;69.10
22416;DHT22;12204;50.600;4.608;2023-12-22T19:24:56;21.30;69.00
22416;DHT22;12204;50.600;4.608;2023-12-22T19:30:02;21.30;68.90
22416;DHT22;12204;50.600;4.608;2023-12-22T19:35:07;21.20;68.80
22416;DHT22;12204;50.600;4.608;2023-12-22T19:40:11;21.20;68.80
22416;DHT22;12204;50.600;4.608;2023-12-22T19:45:16;21.20;68.90
22416;DHT22;12204;50.600;4.608;2023-12-22T19:50:20;21.30;68.90
22416;DHT22;12204;50.600;4.608;2023-12-22T19:55:23;21.20;68.80
22416;DHT22;12204;50.600;4.608;2023-12-22T20:00:29;21.20;68.60
22416;DHT22;12204;50.600;4.608;2023-12-22T20:05:32;21.20;68.70
22416;DHT22;12204;50.600;4.608;2023-12-22T20:10:36;21.20;68.70
22416;DHT22;12204;50.600;4.608;2023-12-22T20:15:41;21.10;68.70
22416;DHT22;12204;50.600;4.608;2023-12-22T20:20:44;21.20;68.30
22416;DHT22;12204;50.600;4.608;2023-12-22T20:25:49;21.10;68.40
22416;DHT22;12204;50.600;4.608;2023-12-22T20:30:55;21.10;68.30
22416;DHT22;12204;50.600;4.608;2023-12-22T20:35:59;21.10;68.40
22416;DHT22;12204;50.600;4.608;2023-12-22T20:41:03;21.10;68.30
22416;DHT22;12204;50.600;4.608;2023-12-22T20:46:08;21.10;68.20
22416;DHT22;12204;50.600;4.608;2023-12-22T20:51:12;21.10;68.60
22416;DHT22;12204;50.600;4.608;2023-12-22T20:56:16;21.10;68.80
22416;DHT22;12204;50.600;4.608;2023-12-22T21:01:22;21.10;69.10
22416;DHT22;12204;50.600;4.608;2023-12-22T21:06:30;21.10;69.00
22416;DHT22;12204;50.600;4.608;2023-12-22T21:11:34;21.20;69.40
22416;DHT22;12204;50.600;4.608;2023-12-22T21:16:44;21.20;68.60
22416;DHT22;12204;50.600;4.608;2023-12-22T21:21:47;21.20;68.10
22416;DHT22;12204;50.600;4.608;2023-12-22T21:26:51;21.20;68.00
22416;DHT22;12204;50.600;4.608;2023-12-22T21:31:56;21.20;67.90
22416;DHT22;12204;50.600;4.608;2023-12-22T21:37:01;21.20;67.90
22416;DHT22;12204;50.600;4.608;2023-12-22T21:42:04;21.20;68.10
22416;DHT22;12204;50.600;4.608;2023-12-22T21:47:10;21.20;67.90
22416;DHT22;12204;50.600;4.608;2023-12-22T21:52:13;21.30;69.40
22416;DHT22;12204;50.600;4.608;2023-12-22T21:57:17;21.30;68.70
22416;DHT22;12204;50.600;4.608;2023-12-22T22:02:22;21.30;68.50
22416;DHT22;12204;50.600;4.608;2023-12-22T22:07:26;21.30;68.40
22416;DHT22;12204;50.600;4.608;2023-12-22T22:12:29;21.30;68.50
22416;DHT22;12204;50.600;4.608;2023-12-22T22:17:34;21.30;68.40
22416;DHT22;12204;50.600;4.608;2023-12-22T22:22:38;21.30;68.30
22416;DHT22;12204;50.600;4.608;2023-12-22T22:27:41;21.30;68.40
22416;DHT22;12204;50.600;4.608;2023-12-22T22:32:46;21.20;71.40
22416;DHT22;12204;50.600;4.608;2023-12-22T22:37:50;21.30;72.20
22416;DHT22;12204;50.600;4.608;2023-12-22T22:42:54;21.40;72.10
22416;DHT22;12204;50.600;4.608;2023-12-22T22:47:59;21.40;71.90
22416;DHT22;12204;50.600;4.608;2023-12-22T22:53:06;21.40;71.70
22416;DHT22;12204;50.600;4.608;2023-12-22T22:58:10;21.50;71.50
22416;DHT22;12204;50.600;4.608;2023-12-22T23:03:15;21.50;71.30
22416;DHT22;12204;50.600;4.608;2023-12-22T23:08:18;21.50;71.30
22416;DHT22;12204;50.600;4.608;2023-12-22T23:13:22;21.50;71.10
22416;DHT22;12204;50.600;4.608;2023-12-22T23:18:27;21.50;71.10
22416;DHT22;12204;50.600;4.608;2023-12-22T23:23:31;21.50;71.00
22416;DHT22;12204;50.600;4.608;2023-12-22T23:28:34;21.50;70.70
22416;DHT22;12204;50.600;4.608;2023-12-22T23:33:39;21.50;70.90
22416;DHT22;12204;50.600;4.608;2023-12-22T23:38:42;21.50;70.50
22416;DHT22;12204;50.600;4.608;2023-12-22T23:43:46;21.50;70.50
22416;DHT22;12204;50.600;4.608;2023-12-22T23:48:51;21.50;70.40
22416;DHT22;12204;50.600;4.608;2023-12-22T23:53:54;21.50;70.30
22416;DHT22;12204;50.600;4.608;2023-12-22T23:58:58;21.40;70.20
